createdAt,value
2022-09-01T00:00:01.271Z,26.13
2022-09-01T00:02:33.495Z,26.14
2022-09-01T00:05:01.895Z,26.14
2022-09-01T00:07:30.502Z,26.14
2022-09-01T00:09:59.816Z,26.16
2022-09-01T00:12:28.300Z,26.15
2022-09-01T00:14:55.649Z,26.14
2022-09-01T00:17:22.940Z,26.16
2022-09-01T00:19:50.208Z,26.16
2022-09-01T00:22:18.165Z,26.16
2022-09-01T00:24:45.631Z,26.16
2022-09-01T00:27:13.022Z,26.16
2022-09-01T00:29:43.306Z,26.16
2022-09-01T00:32:12.308Z,26.17
2022-09-01T00:34:40.353Z,26.17
2022-09-01T00:37:08.336Z,26.17
2022-09-01T00:39:35.714Z,26.18
2022-09-01T00:42:03.806Z,26.17
2022-09-01T00:44:31.910Z,26.18
2022-09-01T00:47:00.038Z,26.18
2022-09-01T00:49:35.064Z,26.18
2022-09-01T00:52:11.042Z,26.18
2022-09-01T00:54:44.538Z,26.18
2022-09-01T00:57:13.199Z,26.19
2022-09-01T00:59:50.063Z,26.19
2022-09-01T01:02:17.594Z,26.18
2022-09-01T01:04:46.406Z,26.19
2022-09-01T01:07:15.694Z,26.20
2022-09-01T01:09:45.176Z,26.20
2022-09-01T01:12:14.041Z,26.19
2022-09-01T01:14:41.775Z,26.20
2022-09-01T01:17:13.290Z,26.19
2022-09-01T01:20:02.721Z,26.18
2022-09-01T01:22:59.670Z,26.20
2022-09-01T01:25:34.165Z,26.19
2022-09-01T01:28:16.837Z,26.20
2022-09-01T01:30:52.428Z,26.20
2022-09-01T01:33:23.397Z,26.20
2022-09-01T01:35:53.506Z,26.19
2022-09-01T01:38:23.055Z,26.20
2022-09-01T01:40:55.727Z,26.20
2022-09-01T01:43:24.651Z,26.20
2022-09-01T01:45:54.924Z,26.20
2022-09-01T01:48:28.205Z,26.21
2022-09-01T01:50:59.620Z,26.20
2022-09-01T01:53:27.943Z,26.21
2022-09-01T01:55:57.054Z,26.21
2022-09-01T01:58:25.665Z,26.22
2022-09-01T02:00:54.877Z,26.21
2022-09-01T02:03:25.305Z,26.21
2022-09-01T02:05:54.918Z,26.22
2022-09-01T02:08:26.083Z,26.21
2022-09-01T02:10:55.495Z,26.22
2022-09-01T02:13:28.533Z,26.22
2022-09-01T02:15:56.099Z,26.22
2022-09-01T02:18:36.756Z,26.22
2022-09-01T02:21:15.118Z,26.22
2022-09-01T02:23:47.220Z,26.22
2022-09-01T02:26:17.497Z,26.21
2022-09-01T02:28:54.400Z,26.22
2022-09-01T02:31:28.180Z,26.22
2022-09-01T02:33:58.723Z,26.24
2022-09-01T02:36:26.141Z,26.23
2022-09-01T02:38:55.407Z,26.22
2022-09-01T02:41:27.260Z,26.22
2022-09-01T02:43:55.240Z,26.23
2022-09-01T02:46:23.567Z,26.23
2022-09-01T02:48:53.065Z,26.23
2022-09-01T02:51:25.750Z,26.23
2022-09-01T02:53:54.092Z,26.23
2022-09-01T02:56:25.611Z,26.24
2022-09-01T02:58:55.541Z,26.24
2022-09-01T03:01:31.153Z,26.24
2022-09-01T03:04:03.534Z,26.22
2022-09-01T03:06:34.614Z,26.21
2022-09-01T03:09:06.204Z,26.20
2022-09-01T03:11:35.576Z,26.19
2022-09-01T03:14:03.690Z,26.19
2022-09-01T03:16:31.491Z,26.18
2022-09-01T03:18:59.797Z,26.17
2022-09-01T03:21:27.099Z,26.18
2022-09-01T03:23:54.399Z,26.17
2022-09-01T03:26:23.327Z,26.16
2022-09-01T03:28:52.246Z,26.16
2022-09-01T03:31:21.172Z,26.16
2022-09-01T03:33:51.140Z,26.16
2022-09-01T03:36:25.171Z,26.15
2022-09-01T03:38:52.851Z,26.14
2022-09-01T03:41:28.530Z,26.15
2022-09-01T03:43:58.243Z,26.13
2022-09-01T03:46:36.429Z,26.12
2022-09-01T03:49:07.526Z,26.12
2022-09-01T03:51:38.995Z,26.12
2022-09-01T03:54:07.368Z,26.12
2022-09-01T03:56:35.094Z,26.12
2022-09-01T03:59:02.753Z,26.12
2022-09-01T04:01:35.681Z,26.13
2022-09-01T04:04:06.692Z,26.13
2022-09-01T04:06:34.070Z,26.13
2022-09-01T04:09:03.395Z,26.12
2022-09-01T04:11:33.933Z,26.12
2022-09-01T04:14:02.035Z,26.11
2022-09-01T04:16:52.752Z,26.12
2022-09-01T04:19:26.803Z,26.12
2022-09-01T04:22:00.297Z,26.11
2022-09-01T04:24:33.003Z,26.11
2022-09-01T04:27:02.649Z,26.10
2022-09-01T04:29:31.860Z,26.09
2022-09-01T04:32:07.562Z,26.09
2022-09-01T04:34:39.964Z,26.09
2022-09-01T04:37:10.387Z,26.08
2022-09-01T04:39:39.377Z,26.09
2022-09-01T04:42:08.971Z,26.08
2022-09-01T04:44:36.790Z,26.08
2022-09-01T04:47:11.013Z,26.06
2022-09-01T04:49:38.396Z,26.06
2022-09-01T04:52:05.823Z,26.06
2022-09-01T04:54:35.089Z,26.06
2022-09-01T04:57:02.866Z,26.06
2022-09-01T04:59:36.419Z,26.06
2022-09-01T05:02:07.780Z,26.04
2022-09-01T05:04:37.455Z,26.04
2022-09-01T05:07:05.526Z,26.04
2022-09-01T05:09:37.528Z,26.04
2022-09-01T05:12:37.061Z,26.04
2022-09-01T05:15:09.314Z,26.05
2022-09-01T05:17:38.625Z,26.04
2022-09-01T05:20:07.707Z,26.04
2022-09-01T05:22:35.667Z,26.03
2022-09-01T05:25:13.270Z,26.04
2022-09-01T05:27:52.638Z,26.02
2022-09-01T05:30:22.609Z,26.01
2022-09-01T05:32:50.948Z,26.01
2022-09-01T05:35:18.894Z,26.01
2022-09-01T05:37:46.223Z,26.02
2022-09-01T05:40:16.203Z,26.02
2022-09-01T05:42:45.417Z,26.01
2022-09-01T05:45:14.302Z,26.01
2022-09-01T05:47:41.878Z,25.98
2022-09-01T05:50:14.539Z,25.99
2022-09-01T05:52:47.901Z,26.00
2022-09-01T05:55:16.691Z,26.00
2022-09-01T05:57:47.934Z,26.00
2022-09-01T06:00:18.101Z,26.00
2022-09-01T06:02:48.901Z,26.01
2022-09-01T06:05:20.931Z,26.01
2022-09-01T06:07:51.034Z,26.02
2022-09-01T06:10:18.437Z,26.02
2022-09-01T06:12:46.124Z,26.03
2022-09-01T06:15:21.076Z,26.04
2022-09-01T06:17:52.608Z,26.04
2022-09-01T06:20:20.164Z,26.04
2022-09-01T06:22:47.886Z,26.03
2022-09-01T06:25:18.491Z,26.04
2022-09-01T06:27:48.737Z,26.03
2022-09-01T06:30:23.875Z,26.03
2022-09-01T06:33:14.090Z,26.03
2022-09-01T06:35:47.639Z,26.03
2022-09-01T06:38:17.634Z,26.02
2022-09-01T06:40:48.718Z,26.04
2022-09-01T06:43:19.588Z,26.04
2022-09-01T06:45:54.780Z,26.04
2022-09-01T06:48:25.237Z,26.03
2022-09-01T06:51:21.018Z,26.03
2022-09-01T06:53:57.152Z,26.03
2022-09-01T06:56:32.169Z,26.01
2022-09-01T06:59:06.168Z,25.99
2022-09-01T07:01:35.441Z,25.94
2022-09-01T07:04:03.495Z,25.89
2022-09-01T07:09:48.113Z,25.77
2022-09-01T07:18:29.346Z,25.58
2022-09-01T07:24:06.102Z,25.52
2022-09-01T07:26:35.968Z,25.52
2022-09-01T07:29:07.150Z,25.52
2022-09-01T07:31:52.173Z,25.53
2022-09-01T07:34:40.260Z,25.52
2022-09-01T07:43:12.962Z,25.47
2022-09-01T07:46:00.468Z,25.45
2022-09-01T07:51:36.970Z,25.42
2022-09-01T07:54:05.879Z,25.44
2022-09-01T07:56:39.879Z,25.47
2022-09-01T07:59:14.963Z,25.45
2022-09-01T08:01:55.754Z,25.44
2022-09-01T08:04:23.254Z,25.43
2022-09-01T08:06:51.394Z,25.42
2022-09-01T08:09:25.220Z,25.42
2022-09-01T08:12:02.839Z,25.42
2022-09-01T08:14:34.108Z,25.41
2022-09-01T08:17:16.743Z,25.42
2022-09-01T08:19:47.052Z,25.42
2022-09-01T08:22:25.539Z,25.42
2022-09-01T08:24:58.766Z,25.43
2022-09-01T08:27:26.199Z,25.46
2022-09-01T08:29:53.713Z,25.49
2022-09-01T08:32:21.717Z,25.51
2022-09-01T08:34:49.355Z,25.50
2022-09-01T08:37:17.776Z,25.51
2022-09-01T08:39:48.470Z,25.51
2022-09-01T08:42:32.875Z,25.52
2022-09-01T08:45:28.327Z,25.53
2022-09-01T08:49:02.641Z,25.53
2022-09-01T08:51:13.484Z,25.53
2022-09-01T08:54:04.741Z,25.54
2022-09-01T08:56:36.440Z,25.55
2022-09-01T08:59:09.777Z,25.55
2022-09-01T09:02:27.876Z,25.55
2022-09-01T09:05:22.929Z,25.56
2022-09-01T09:08:08.227Z,25.56
2022-09-01T09:10:56.522Z,25.55
2022-09-01T09:14:08.050Z,25.54
2022-09-01T09:16:46.970Z,25.52
2022-09-01T09:19:30.881Z,25.51
2022-09-01T09:22:01.275Z,25.51
2022-09-01T09:25:00.425Z,25.51
2022-09-01T09:27:37.712Z,25.51
2022-09-01T09:30:12.902Z,25.51
2022-09-01T09:33:15.320Z,25.50
2022-09-01T09:35:39.250Z,25.51
2022-09-01T09:38:33.056Z,25.49
2022-09-01T09:41:17.743Z,25.49
2022-09-01T09:43:47.576Z,25.46
2022-09-01T09:46:38.948Z,25.43
2022-09-01T09:49:36.685Z,25.44
2022-09-01T09:52:38.005Z,25.44
2022-09-01T09:55:20.292Z,25.42
2022-09-01T09:57:49.605Z,25.43
2022-09-01T10:00:38.974Z,25.43
2022-09-01T10:03:12.217Z,25.44
2022-09-01T10:05:48.752Z,25.44
2022-09-01T10:08:29.526Z,25.45
2022-09-01T10:10:58.761Z,25.44
2022-09-01T10:13:33.039Z,25.44
2022-09-01T10:16:03.651Z,25.44
2022-09-01T10:18:39.909Z,25.45
2022-09-01T10:21:16.656Z,25.46
2022-09-01T10:23:44.927Z,25.47
2022-09-01T10:26:19.440Z,25.48
2022-09-01T10:28:54.634Z,25.48
2022-09-01T10:31:22.437Z,25.48
2022-09-01T10:33:50.891Z,25.49
2022-09-01T10:36:19.973Z,25.50
2022-09-01T10:38:53.961Z,25.52
2022-09-01T10:42:00.091Z,25.54
2022-09-01T10:44:56.245Z,25.57
2022-09-01T10:47:29.652Z,25.56
2022-09-01T10:49:59.732Z,25.58
2022-09-01T10:52:40.795Z,25.58
2022-09-01T10:55:24.585Z,25.63
2022-09-01T10:58:09.405Z,25.65
2022-09-01T11:01:11.817Z,25.65
2022-09-01T11:03:53.497Z,25.65
2022-09-01T11:06:33.287Z,25.67
2022-09-01T11:09:05.664Z,25.68
2022-09-01T11:11:49.386Z,25.70
2022-09-01T11:14:23.011Z,25.69
2022-09-01T11:17:12.410Z,25.70
2022-09-01T11:19:44.575Z,25.70
2022-09-01T11:22:23.330Z,25.71
2022-09-01T11:25:11.999Z,25.72
2022-09-01T11:27:48.800Z,25.72
2022-09-01T11:30:21.104Z,25.72
2022-09-01T11:32:52.842Z,25.72
2022-09-01T11:35:23.219Z,25.72
2022-09-01T11:37:54.952Z,25.73
2022-09-01T11:40:32.385Z,25.73
2022-09-01T11:43:12.628Z,25.73
2022-09-01T11:46:21.699Z,25.72
2022-09-01T11:48:52.037Z,25.73
2022-09-01T11:51:21.489Z,25.73
2022-09-01T11:53:50.551Z,25.75
2022-09-01T11:56:24.671Z,25.74
2022-09-01T11:58:52.461Z,25.74
2022-09-01T12:01:21.572Z,25.76
2022-09-01T12:03:51.321Z,25.78
2022-09-01T12:06:23.669Z,25.78
2022-09-01T12:09:08.798Z,25.82
2022-09-01T12:11:36.266Z,25.83
2022-09-01T12:14:11.388Z,25.84
2022-09-01T12:16:42.658Z,25.84
2022-09-01T12:19:33.043Z,25.85
2022-09-01T12:22:17.128Z,25.85
2022-09-01T12:24:47.418Z,25.85
2022-09-01T12:27:15.360Z,25.84
2022-09-01T12:29:43.751Z,25.85
2022-09-01T12:32:12.348Z,25.85
2022-09-01T12:34:42.113Z,25.87
2022-09-01T12:37:24.947Z,25.86
2022-09-01T12:39:57.988Z,25.88
2022-09-01T12:42:27.580Z,25.88
2022-09-01T12:45:01.343Z,25.91
2022-09-01T12:47:35.799Z,25.90
2022-09-01T12:50:29.646Z,25.90
2022-09-01T12:53:00.258Z,25.93
2022-09-01T12:55:48.576Z,25.95
2022-09-01T12:58:22.886Z,25.96
2022-09-01T13:01:02.585Z,25.96
2022-09-01T13:03:30.776Z,25.96
2022-09-01T13:06:03.843Z,25.95
2022-09-01T13:08:33.892Z,25.95
2022-09-01T13:11:12.993Z,25.96
2022-09-01T13:13:40.589Z,25.98
2022-09-01T13:16:14.093Z,26.01
2022-09-01T13:21:32.194Z,26.02
2022-09-01T13:23:59.582Z,26.03
2022-09-01T13:26:28.109Z,26.04
2022-09-01T13:28:55.521Z,26.05
2022-09-01T13:31:31.817Z,26.04
2022-09-01T13:34:22.627Z,26.05
2022-09-01T13:36:51.699Z,26.02
2022-09-01T13:39:21.255Z,26.02
2022-09-01T13:41:49.577Z,26.02
2022-09-01T13:44:18.548Z,26.03
2022-09-01T13:47:28.705Z,26.06
2022-09-01T13:49:42.547Z,26.06
2022-09-01T13:52:13.079Z,26.06
2022-09-01T13:54:40.684Z,26.05
2022-09-01T13:57:07.984Z,26.04
2022-09-01T13:59:35.284Z,26.09
2022-09-01T14:02:02.741Z,26.08
2022-09-01T14:04:30.184Z,26.08
2022-09-01T14:06:59.753Z,26.07
2022-09-01T14:09:27.278Z,26.06
2022-09-01T14:11:55.474Z,26.07
2022-09-01T14:14:23.128Z,26.07
2022-09-01T14:16:50.678Z,26.08
2022-09-01T14:19:18.566Z,26.08
2022-09-01T14:21:47.386Z,26.07
2022-09-01T14:24:16.596Z,26.06
2022-09-01T14:26:44.113Z,26.09
2022-09-01T14:29:11.906Z,26.09
2022-09-01T14:31:39.566Z,26.11
2022-09-01T14:34:06.966Z,26.12
2022-09-01T14:36:34.373Z,26.12
2022-09-01T14:39:01.864Z,26.10
2022-09-01T14:41:29.581Z,26.11
2022-09-01T14:44:03.058Z,26.09
2022-09-01T14:46:34.408Z,26.09
2022-09-01T14:49:04.414Z,26.08
2022-09-01T14:54:19.786Z,26.11
2022-09-01T14:59:35.824Z,26.11
2022-09-01T15:02:04.955Z,26.06
2022-09-01T15:04:32.332Z,26.03
2022-09-01T15:07:00.108Z,26.06
2022-09-01T15:09:27.391Z,26.04
2022-09-01T15:11:54.703Z,26.07
2022-09-01T15:14:22.027Z,26.07
2022-09-01T15:16:49.417Z,26.08
2022-09-01T15:19:17.081Z,26.09
2022-09-01T15:21:46.968Z,26.09
2022-09-01T15:24:14.640Z,26.09
2022-09-01T15:26:42.019Z,26.10
2022-09-01T15:29:15.099Z,26.10
2022-09-01T15:31:44.218Z,26.09
2022-09-01T15:34:13.806Z,26.11
2022-09-01T15:36:41.629Z,26.13
2022-09-01T15:39:10.461Z,26.16
2022-09-01T15:41:38.573Z,26.16
2022-09-01T15:44:07.987Z,26.17
2022-09-01T15:46:38.928Z,26.17
2022-09-01T15:49:09.364Z,26.16
2022-09-01T15:51:39.452Z,26.16
2022-09-01T15:54:08.403Z,26.16
2022-09-01T15:56:35.987Z,26.17
2022-09-01T15:59:06.370Z,26.13
2022-09-01T16:01:37.095Z,26.06
2022-09-01T16:04:07.539Z,26.04
2022-09-01T16:06:35.631Z,26.04
2022-09-01T16:09:02.993Z,26.05
2022-09-01T16:11:30.437Z,26.05
2022-09-01T16:13:58.637Z,26.07
2022-09-01T16:16:40.559Z,26.07
2022-09-01T16:19:20.429Z,26.08
2022-09-01T16:22:22.127Z,26.08
2022-09-01T16:24:54.143Z,26.09
2022-09-01T16:27:27.656Z,26.08
2022-09-01T16:29:57.587Z,26.09
2022-09-01T16:32:25.843Z,26.09
2022-09-01T16:34:53.723Z,26.09
2022-09-01T16:37:42.596Z,26.10
2022-09-01T16:40:34.705Z,26.08
2022-09-01T16:43:13.370Z,26.08
2022-09-01T16:45:56.322Z,26.09
2022-09-01T16:48:42.696Z,26.09
2022-09-01T16:51:35.114Z,26.10
2022-09-01T16:54:20.948Z,26.10
2022-09-01T16:56:58.528Z,26.10
2022-09-01T16:59:28.806Z,26.10
2022-09-01T17:02:26.672Z,26.10
2022-09-01T17:05:05.946Z,26.10
2022-09-01T17:07:44.319Z,26.09
2022-09-01T17:10:27.622Z,26.09
2022-09-01T17:12:56.759Z,26.10
2022-09-01T17:15:40.024Z,26.09
2022-09-01T17:18:30.184Z,26.10
2022-09-01T17:21:15.591Z,26.10
2022-09-01T17:24:22.372Z,26.09
2022-09-01T17:26:51.327Z,26.10
2022-09-01T17:29:24.600Z,26.10
2022-09-01T17:32:10.429Z,26.09
2022-09-01T17:35:18.831Z,26.09
2022-09-01T17:38:34.131Z,26.10
2022-09-01T17:41:10.588Z,26.10
2022-09-01T17:43:53.187Z,26.09
2022-09-01T17:46:41.861Z,26.09
2022-09-01T17:49:09.900Z,26.09
2022-09-01T17:51:44.260Z,26.09
2022-09-01T17:54:50.287Z,26.10
2022-09-01T17:57:17.483Z,26.10
2022-09-01T18:00:01.622Z,26.09
2022-09-01T18:03:08.548Z,26.09
2022-09-01T18:05:53.577Z,26.09
2022-09-01T18:08:30.545Z,26.10
2022-09-01T18:11:00.112Z,26.09
2022-09-01T18:13:52.434Z,26.10
2022-09-01T18:16:40.991Z,26.09
2022-09-01T18:19:16.361Z,26.09
2022-09-01T18:21:52.336Z,26.09
2022-09-01T18:24:35.851Z,26.09
2022-09-01T18:27:03.160Z,26.09
2022-09-01T18:29:31.795Z,26.09
2022-09-01T18:32:18.065Z,26.09
2022-09-01T18:34:54.255Z,26.09
2022-09-01T18:37:27.212Z,26.09
2022-09-01T18:40:07.148Z,26.09
2022-09-01T18:42:55.836Z,26.08
2022-09-01T18:45:54.355Z,26.09
2022-09-01T18:48:30.132Z,26.09
2022-09-01T18:51:33.614Z,26.09
2022-09-01T18:54:09.164Z,26.08
2022-09-01T18:56:46.467Z,26.09
2022-09-01T18:59:22.893Z,26.09
2022-09-01T19:01:56.833Z,26.08
2022-09-01T19:04:30.121Z,26.09
2022-09-01T19:07:36.739Z,26.08
2022-09-01T19:10:18.331Z,26.08
2022-09-01T19:13:28.087Z,26.08
2022-09-01T19:16:18.584Z,26.08
2022-09-01T19:18:49.277Z,26.08
2022-09-01T19:21:19.650Z,26.08
2022-09-01T19:24:09.800Z,26.08
2022-09-01T19:26:48.802Z,26.07
2022-09-01T19:29:20.586Z,26.08
2022-09-01T19:31:51.686Z,26.07
2022-09-01T19:34:30.168Z,26.08
2022-09-01T19:37:01.149Z,26.08
2022-09-01T19:39:35.423Z,26.08
2022-09-01T19:42:17.985Z,26.08
2022-09-01T19:45:06.654Z,26.08
2022-09-01T19:48:05.640Z,26.06
2022-09-01T19:50:48.798Z,26.06
2022-09-01T19:53:43.276Z,26.07
2022-09-01T19:56:21.808Z,26.07
2022-09-01T19:59:01.346Z,26.08
2022-09-01T20:01:44.910Z,26.07
2022-09-01T20:04:27.266Z,26.08
2022-09-01T20:06:59.344Z,26.08
2022-09-01T20:09:58.890Z,26.08
2022-09-01T20:12:30.089Z,26.07
2022-09-01T20:15:07.472Z,26.08
2022-09-01T20:17:45.596Z,26.08
2022-09-01T20:20:43.500Z,26.07
2022-09-01T20:23:17.097Z,26.08
2022-09-01T20:25:52.056Z,26.07
2022-09-01T20:28:29.265Z,26.07
2022-09-01T20:31:03.345Z,26.08
2022-09-01T20:33:45.214Z,26.07
2022-09-01T20:36:18.934Z,26.06
2022-09-01T20:39:41.777Z,26.07
2022-09-01T20:42:38.300Z,26.07
2022-09-01T20:45:13.186Z,26.07
2022-09-01T20:47:40.515Z,26.07
2022-09-01T20:50:12.769Z,26.06
2022-09-01T20:53:10.298Z,26.07
2022-09-01T20:55:45.763Z,26.06
2022-09-01T20:58:36.082Z,25.94
2022-09-01T21:01:18.058Z,25.79
2022-09-01T21:04:01.597Z,25.65
2022-09-01T21:06:57.842Z,25.58
2022-09-01T21:09:40.328Z,25.45
2022-09-01T21:12:29.617Z,25.39
2022-09-01T21:15:17.927Z,25.26
2022-09-01T21:17:45.213Z,25.25
2022-09-01T21:20:44.780Z,25.24
2022-09-01T21:23:16.244Z,25.21
2022-09-01T21:25:47.042Z,25.18
2022-09-01T21:28:22.005Z,25.14
2022-09-01T21:30:54.481Z,25.12
2022-09-01T21:33:23.970Z,25.09
2022-09-01T21:35:52.931Z,25.04
2022-09-01T21:38:20.409Z,25.01
2022-09-01T21:40:48.929Z,25.00
2022-09-01T21:43:23.719Z,24.99
2022-09-01T21:45:51.417Z,24.99
2022-09-01T21:48:18.831Z,24.99
2022-09-01T21:50:46.490Z,24.99
2022-09-01T21:53:14.107Z,24.99
2022-09-01T21:55:41.767Z,25.01
2022-09-01T21:58:09.293Z,25.03
2022-09-01T22:00:43.346Z,25.03
2022-09-01T22:03:12.361Z,25.03
2022-09-01T22:05:41.867Z,25.01
2022-09-01T22:08:17.171Z,24.96
2022-09-01T22:10:49.526Z,24.94
2022-09-01T22:13:17.624Z,24.91
2022-09-01T22:15:48.586Z,24.91
2022-09-01T22:18:17.268Z,24.92
2022-09-01T22:20:46.875Z,24.96
2022-09-01T22:23:15.300Z,24.96
2022-09-01T22:25:46.219Z,24.94
2022-09-01T22:28:13.928Z,24.92
2022-09-01T22:30:50.678Z,24.91
2022-09-01T22:33:20.063Z,24.93
2022-09-01T22:35:50.881Z,24.96
2022-09-01T22:38:25.815Z,24.99
2022-09-01T22:40:57.225Z,25.02
2022-09-01T22:43:27.029Z,25.04
2022-09-01T22:45:56.549Z,25.06
2022-09-01T22:48:26.263Z,25.07
2022-09-01T22:50:53.525Z,25.05
2022-09-01T22:53:22.504Z,25.04
2022-09-01T22:55:51.620Z,25.03
2022-09-01T22:58:19.278Z,25.04
2022-09-01T23:00:50.496Z,25.05
2022-09-01T23:03:19.655Z,25.05
2022-09-01T23:05:47.909Z,25.04
2022-09-01T23:08:15.648Z,25.02
2022-09-01T23:10:43.300Z,25.01
2022-09-01T23:13:10.667Z,25.02
2022-09-01T23:15:38.342Z,25.03
2022-09-01T23:18:06.024Z,25.02
2022-09-01T23:20:33.399Z,24.99
2022-09-01T23:23:00.739Z,24.86
2022-09-01T23:25:28.156Z,24.79
2022-09-01T23:27:55.492Z,24.78
2022-09-01T23:30:22.763Z,24.78
2022-09-01T23:32:50.040Z,24.83
2022-09-01T23:35:17.510Z,24.88
2022-09-01T23:37:44.818Z,24.92
2022-09-01T23:40:12.221Z,24.99
2022-09-01T23:42:41.402Z,25.03
2022-09-01T23:45:09.350Z,25.06
2022-09-01T23:47:36.869Z,25.09
2022-09-01T23:50:05.232Z,25.10
2022-09-01T23:52:32.855Z,25.13
2022-09-01T23:55:00.710Z,25.15
2022-09-01T23:57:28.051Z,25.18
2022-09-01T23:59:58.437Z,25.19
